Time;durP1;ratioP1;P1;durP2;ratioP2;P2;SDS_P1;SDS_P2;PMS_P1;PMS_P2;Temp;Humidity;BMP_temperature;BMP_pressure;BME280_temperature;BME280_humidity;BME280_pressure;Samples;Min_cycle;Max_cycle;Signal;HPM_P1;HPM_P2
2023/09/29 00:00:17;;;;;;;12.50;11.20;;;;;;;13.88;100.00;98488.09;106945;1281;25303;-88
2023/09/29 00:03:08;;;;;;;14.20;10.90;;;;;;;13.84;100.00;98491.21;106954;1281;25254;-87
2023/09/29 00:05:36;;;;;;;12.40;10.80;;;;;;;13.69;100.00;98491.75;106829;1259;25329;-87
2023/09/29 00:08:07;;;;;;;16.40;10.40;;;;;;;13.63;100.00;98489.81;106913;1275;25585;-88
2023/09/29 00:10:39;;;;;;;13.60;11.00;;;;;;;13.65;100.00;98490.20;106903;1281;22776;-89
2023/09/29 00:13:07;;;;;;;14.80;9.60;;;;;;;13.70;100.00;98488.51;106927;1281;24451;-88
2023/09/29 00:15:38;;;;;;;13.40;9.80;;;;;;;13.72;100.00;98488.23;106996;1275;22532;-89
2023/09/29 00:18:07;;;;;;;18.10;10.80;;;;;;;13.81;100.00;98484.72;107011;1278;23569;-87
2023/09/29 00:20:35;;;;;;;13.40;9.60;;;;;;;13.80;100.00;98486.05;108038;1278;22560;-89
2023/09/29 00:23:03;;;;;;;20.90;11.50;;;;;;;13.85;100.00;98485.72;107072;1281;25249;-88
2023/09/29 00:25:33;;;;;;;13.40;10.00;;;;;;;13.88;100.00;98482.73;106837;1281;22573;-88
2023/09/29 00:28:01;;;;;;;14.90;9.70;;;;;;;13.88;100.00;98485.23;106665;1276;25246;-85
2023/09/29 00:30:29;;;;;;;12.00;9.30;;;;;;;13.86;100.00;98487.38;106634;1281;156723;-88
2023/09/29 00:32:57;;;;;;;11.60;8.90;;;;;;;13.80;100.00;98486.04;106927;1275;22534;-86
2023/09/29 00:35:27;;;;;;;9.80;8.30;;;;;;;13.80;100.00;98487.84;106945;1279;25334;-88
2023/09/29 00:37:58;;;;;;;11.10;9.30;;;;;;;13.77;100.00;98484.98;106925;1278;22579;-87
2023/09/29 00:40:28;;;;;;;12.10;8.90;;;;;;;13.75;100.00;98486.93;106943;1274;22543;-88
2023/09/29 00:42:59;;;;;;;13.00;9.80;;;;;;;13.72;100.00;98484.00;106800;1281;22593;-86
2023/09/29 00:45:28;;;;;;;16.60;10.20;;;;;;;13.64;100.00;98482.27;106834;1281;22541;-88
2023/09/29 00:48:03;;;;;;;14.10;10.50;;;;;;;13.56;100.00;98482.23;106830;1279;22541;-90
2023/09/29 00:50:34;;;;;;;11.00;9.60;;;;;;;13.48;100.00;98484.41;107014;1275;22583;-88
2023/09/29 00:53:11;;;;;;;13.70;8.90;;;;;;;13.48;100.00;98484.85;106954;1281;22593;-87
2023/09/29 00:55:42;;;;;;;12.00;9.90;;;;;;;13.51;100.00;98484.02;106830;1281;22622;-86
2023/09/29 00:58:12;;;;;;;13.30;10.00;;;;;;;13.51;100.00;98480.83;106910;1281;22664;-86
2023/09/29 01:00:42;;;;;;;13.80;10.80;;;;;;;13.48;100.00;98478.69;106920;1276;25258;-87
2023/09/29 01:03:14;;;;;;;12.00;9.80;;;;;;;13.50;100.00;98483.57;106978;1278;22567;-87
2023/09/29 01:05:47;;;;;;;11.30;8.90;;;;;;;13.49;100.00;98484.55;106826;1281;22540;-86
2023/09/29 01:08:20;;;;;;;14.70;8.70;;;;;;;13.48;100.00;98485.02;107296;1281;22563;-87
2023/09/29 01:10:50;;;;;;;16.30;8.90;;;;;;;13.40;100.00;98485.61;107460;1281;22608;-87
2023/09/29 01:13:18;;;;;;;12.20;9.40;;;;;;;13.39;100.00;98484.21;106945;1281;24273;-87
2023/09/29 01:15:47;;;;;;;12.00;9.60;;;;;;;13.41;100.00;98485.48;106883;1281;24530;-86
2023/09/29 01:18:16;;;;;;;14.60;8.80;;;;;;;13.40;100.00;98482.29;106853;1281;24275;-87
2023/09/29 01:20:46;;;;;;;11.20;9.10;;;;;;;13.40;100.00;98482.35;106933;1281;24374;-88
2023/09/29 01:23:14;;;;;;;9.90;8.10;;;;;;;13.41;100.00;98483.31;106665;1281;25558;-88
2023/09/29 01:25:43;;;;;;;12.80;8.60;;;;;;;13.43;100.00;98483.34;106919;1281;22607;-86
2023/09/29 01:28:12;;;;;;;11.10;8.80;;;;;;;13.43;100.00;98486.36;106873;1281;22815;-88
2023/09/29 01:30:44;;;;;;;11.50;10.10;;;;;;;13.41;100.00;98482.81;106860;1275;25331;-90
2023/09/29 01:33:13;;;;;;;13.90;8.60;;;;;;;13.40;100.00;98481.59;106937;1281;22494;-89
2023/09/29 01:35:43;;;;;;;12.10;9.20;;;;;;;13.41;100.00;98482.48;106860;1281;22556;-89
2023/09/29 01:38:12;;;;;;;13.80;8.70;;;;;;;13.43;100.00;98485.83;107054;1281;22494;-91
2023/09/29 01:40:41;;;;;;;12.80;8.90;;;;;;;13.42;100.00;98484.01;106930;1279;24174;-91
2023/09/29 01:43:10;;;;;;;13.10;8.80;;;;;;;13.41;100.00;98485.04;107094;1281;22769;-91
2023/09/29 01:45:38;;;;;;;10.30;9.20;;;;;;;13.44;100.00;98487.69;107093;1281;22562;-92
2023/09/29 01:48:07;;;;;;;13.50;9.30;;;;;;;13.44;100.00;98485.52;107120;1281;22593;-91
2023/09/29 01:50:36;;;;;;;11.40;8.90;;;;;;;13.42;100.00;98488.65;107228;1281;24337;-92
2023/09/29 01:53:05;;;;;;;11.90;8.70;;;;;;;13.42;100.00;98486.92;107015;1281;23976;-92
2023/09/29 01:55:34;;;;;;;14.20;8.80;;;;;;;13.42;100.00;98488.23;107258;1281;22559;-90
2023/09/29 01:58:03;;;;;;;10.90;8.70;;;;;;;13.37;100.00;98489.72;106873;1281;22593;-91
2023/09/29 02:00:31;;;;;;;10.70;9.20;;;;;;;13.34;100.00;98491.95;107138;1281;22565;-92
2023/09/29 02:03:06;;;;;;;13.20;8.50;;;;;;;13.34;100.00;98492.34;107142;1281;22460;-90
2023/09/29 02:05:35;;;;;;;9.40;8.10;;;;;;;13.39;100.00;98489.10;106916;1281;22559;-92
2023/09/29 02:08:05;;;;;;;15.70;9.50;;;;;;;13.38;100.00;98491.98;107242;1281;22478;-93
2023/09/29 02:10:33;;;;;;;11.80;9.70;;;;;;;13.40;100.00;98490.41;107279;1281;25550;-92
2023/09/29 02:13:04;;;;;;;15.30;8.60;;;;;;;13.41;100.00;98492.93;107253;1281;22857;-90
2023/09/29 02:15:34;;;;;;;9.90;8.20;;;;;;;13.39;100.00;98492.17;107025;1281;25616;-92
2023/09/29 02:18:04;;;;;;;9.50;8.50;;;;;;;13.34;100.00;98496.07;109655;1281;22571;-93
2023/09/29 02:20:34;;;;;;;11.60;8.50;;;;;;;13.28;100.00;98496.56;109621;1281;22783;-94
2023/09/29 02:23:04;;;;;;;11.90;8.10;;;;;;;13.20;100.00;98496.75;109744;1281;22557;-91
2023/09/29 02:25:32;;;;;;;12.10;8.70;;;;;;;13.15;100.00;98493.92;108638;1281;22502;-94
2023/09/29 02:28:01;;;;;;;13.60;8.70;;;;;;;13.12;100.00;98494.20;108426;1281;22545;-92
2023/09/29 02:30:29;;;;;;;10.30;7.50;;;;;;;13.12;100.00;98487.88;108387;1275;22560;-93
2023/09/29 02:32:58;;;;;;;11.20;7.90;;;;;;;13.19;100.00;98486.88;108596;1281;22537;-94
2023/09/29 02:35:26;;;;;;;14.00;8.00;;;;;;;13.27;100.00;98489.28;108775;1281;22461;-93
2023/09/29 02:37:55;;;;;;;10.00;8.20;;;;;;;13.30;100.00;98487.23;108132;1281;22593;-92
2023/09/29 02:40:23;;;;;;;11.90;8.60;;;;;;;13.29;100.00;98487.02;107733;1281;23969;-93
2023/09/29 02:42:53;;;;;;;11.20;8.00;;;;;;;13.27;100.00;98483.40;107388;1281;25499;-92
2023/09/29 02:45:24;;;;;;;10.20;8.00;;;;;;;13.27;100.00;98488.64;107190;1281;24273;-90
2023/09/29 02:47:53;;;;;;;15.30;7.70;;;;;;;13.25;100.00;98488.23;107048;1281;24239;-90
2023/09/29 02:50:21;;;;;;;14.40;8.30;;;;;;;13.25;100.00;98481.25;106840;1281;22667;-91
2023/09/29 02:52:49;;;;;;;10.00;8.40;;;;;;;13.25;100.00;98479.94;107440;1281;22487;-93
2023/09/29 02:55:17;;;;;;;12.40;8.20;;;;;;;13.25;100.00;98482.76;109428;1281;22604;-87
2023/09/29 02:57:45;;;;;;;10.90;8.10;;;;;;;13.23;100.00;98478.52;110167;1281;22501;-88
2023/09/29 03:00:21;;;;;;;10.80;7.60;;;;;;;13.18;100.00;98479.48;110200;1281;22536;-86
2023/09/29 03:02:53;;;;;;;9.40;7.10;;;;;;;13.17;100.00;98475.80;110106;1281;22510;-91
2023/09/29 03:05:22;;;;;;;15.30;8.80;;;;;;;13.19;100.00;98478.69;107668;1281;22595;-89
2023/09/29 03:07:51;;;;;;;14.10;8.20;;;;;;;13.17;100.00;98476.66;107580;1281;22535;-90
2023/09/29 03:10:26;;;;;;;11.80;7.30;;;;;;;13.10;100.00;98472.38;107286;1281;24344;-90
2023/09/29 03:12:56;;;;;;;9.60;7.30;;;;;;;13.11;100.00;98470.20;106912;1281;24358;-88
2023/09/29 03:15:26;;;;;;;11.30;6.90;;;;;;;13.18;100.00;98466.52;107111;1281;22527;-90
2023/09/29 03:17:55;;;;;;;12.90;7.20;;;;;;;13.24;100.00;98465.84;106816;1281;22746;-90
2023/09/29 03:20:27;;;;;;;12.90;7.60;;;;;;;13.27;100.00;98463.30;107033;1281;24130;-90
2023/09/29 03:23:04;;;;;;;10.80;8.80;;;;;;;13.24;100.00;98462.65;107344;1281;24184;-88
2023/09/29 03:25:32;;;;;;;10.90;7.90;;;;;;;13.23;100.00;98458.00;107172;1281;24364;-92
2023/09/29 03:28:01;;;;;;;11.20;7.70;;;;;;;13.24;100.00;98462.09;108118;1281;25417;-89
2023/09/29 03:30:31;;;;;;;10.50;7.40;;;;;;;13.21;100.00;98457.39;109017;1281;25037;-91
2023/09/29 03:32:59;;;;;;;13.30;8.40;;;;;;;13.18;100.00;98457.82;107374;1281;22720;-89
2023/09/29 03:35:29;;;;;;;13.10;8.90;;;;;;;13.07;100.00;98459.45;107282;1270;23404;-90
2023/09/29 03:37:57;;;;;;;11.40;7.60;;;;;;;13.01;100.00;98454.64;106821;1281;22541;-91
2023/09/29 03:40:26;;;;;;;10.10;7.30;;;;;;;13.05;100.00;98455.92;107058;1281;22581;-90
2023/09/29 03:42:55;;;;;;;8.90;7.80;;;;;;;13.07;100.00;98454.59;106857;1281;22570;-87
2023/09/29 03:45:23;;;;;;;9.80;8.10;;;;;;;13.11;100.00;98458.52;106957;1259;22591;-92
2023/09/29 03:47:52;;;;;;;9.60;8.00;;;;;;;13.11;100.00;98450.40;107029;1281;22596;-89
2023/09/29 03:50:20;;;;;;;11.80;8.60;;;;;;;13.10;100.00;98452.04;107040;1281;22569;-91
2023/09/29 03:52:47;;;;;;;9.60;7.80;;;;;;;13.06;100.00;98451.29;107147;1281;24153;-92
2023/09/29 03:55:16;;;;;;;10.30;7.70;;;;;;;13.05;100.00;98452.30;107110;1281;23885;-92
2023/09/29 03:57:44;;;;;;;10.80;8.10;;;;;;;13.06;100.00;98444.16;106978;1281;22633;-89
2023/09/29 04:00:15;;;;;;;10.60;8.70;;;;;;;13.05;100.00;98445.20;106858;1281;25490;-91
2023/09/29 04:02:44;;;;;;;12.50;8.00;;;;;;;12.96;100.00;98443.48;107052;1281;24240;-90
2023/09/29 04:05:13;;;;;;;10.10;7.30;;;;;;;12.98;100.00;98441.51;107165;1281;22768;-92
2023/09/29 04:07:41;;;;;;;10.60;7.70;;;;;;;13.00;100.00;98440.55;106976;1281;22534;-90
2023/09/29 04:10:10;;;;;;;9.20;7.90;;;;;;;13.00;100.00;98441.68;106701;1281;22713;-89
2023/09/29 04:12:40;;;;;;;13.00;8.10;;;;;;;12.99;100.00;98439.50;106907;1281;22604;-89
2023/09/29 04:15:09;;;;;;;10.20;8.20;;;;;;;12.91;100.00;98440.56;106939;1281;22536;-89
2023/09/29 04:17:39;;;;;;;10.40;8.70;;;;;;;12.83;100.00;98443.86;106913;1281;23064;-89
2023/09/29 04:20:09;;;;;;;11.50;8.20;;;;;;;12.72;100.00;98442.82;106947;1281;25368;-88
2023/09/29 04:22:37;;;;;;;10.40;7.60;;;;;;;12.65;100.00;98444.84;107127;1281;22557;-89
2023/09/29 04:25:09;;;;;;;11.20;7.00;;;;;;;12.65;100.00;98443.43;106854;1281;22571;-88
2023/09/29 04:27:39;;;;;;;10.40;7.40;;;;;;;12.69;100.00;98447.73;107092;1281;22610;-91
2023/09/29 04:30:09;;;;;;;11.50;7.90;;;;;;;12.69;100.00;98445.73;107138;1281;22633;-87
2023/09/29 04:32:38;;;;;;;11.10;7.60;;;;;;;12.72;100.00;98448.17;107453;1281;22540;-88
2023/09/29 04:35:07;;;;;;;8.60;7.70;;;;;;;12.73;100.00;98443.52;106953;1281;22559;-89
2023/09/29 04:37:36;;;;;;;9.50;7.50;;;;;;;12.72;100.00;98436.48;106850;1281;25342;-89
2023/09/29 04:40:06;;;;;;;10.80;8.00;;;;;;;12.76;100.00;98442.96;106928;1281;23983;-86
2023/09/29 04:42:34;;;;;;;9.30;6.70;;;;;;;12.81;100.00;98444.54;106909;1281;25483;-88
2023/09/29 04:45:02;;;;;;;13.20;7.10;;;;;;;12.89;100.00;98443.42;106878;1275;22546;-90
2023/09/29 04:47:30;;;;;;;12.10;7.80;;;;;;;12.94;100.00;98442.73;106866;1281;23139;-88
2023/09/29 04:49:59;;;;;;;13.60;7.70;;;;;;;12.97;100.00;98436.88;107762;1281;22673;-89
2023/09/29 04:52:27;;;;;;;10.00;8.80;;;;;;;13.03;100.00;98443.77;107079;1281;22605;-88
2023/09/29 04:54:55;;;;;;;10.00;7.30;;;;;;;13.06;100.00;98443.78;106909;1281;22749;-88
2023/09/29 04:57:23;;;;;;;9.60;7.00;;;;;;;13.05;100.00;98447.69;106975;1278;22587;-90
2023/09/29 04:59:52;;;;;;;12.50;7.60;;;;;;;13.08;100.00;98445.37;106809;1281;24246;-89
2023/09/29 05:02:19;;;;;;;11.90;7.90;;;;;;;13.10;100.00;98447.71;106863;1281;22713;-88
2023/09/29 05:04:47;;;;;;;9.90;8.20;;;;;;;13.09;100.00;98448.11;106953;1281;24247;-90
2023/09/29 05:07:15;;;;;;;10.40;8.10;;;;;;;13.02;100.00;98447.98;106946;1281;22715;-91
2023/09/29 05:09:45;;;;;;;10.40;8.80;;;;;;;12.99;100.00;98447.17;106821;1281;22667;-89
2023/09/29 05:12:13;;;;;;;9.70;8.30;;;;;;;12.94;100.00;98449.26;106883;1281;24246;-89
2023/09/29 05:14:42;;;;;;;10.00;7.50;;;;;;;12.93;100.00;98445.49;106912;1281;22544;-88
2023/09/29 05:17:10;;;;;;;10.70;8.20;;;;;;;12.95;100.00;98446.70;107269;1281;22586;-90
2023/09/29 05:19:37;;;;;;;12.20;9.30;;;;;;;12.96;100.00;98446.47;106957;1281;25413;-91
2023/09/29 05:22:06;;;;;;;10.40;8.80;;;;;;;12.98;100.00;98444.49;107004;1281;25688;-89
2023/09/29 05:24:34;;;;;;;9.00;8.10;;;;;;;13.02;100.00;98444.34;107036;1281;22560;-86
2023/09/29 05:27:02;;;;;;;12.20;8.20;;;;;;;13.08;100.00;98448.55;107236;1281;22485;-87
2023/09/29 05:29:30;;;;;;;9.50;8.40;;;;;;;13.14;100.00;98449.63;107007;1281;22625;-89
2023/09/29 05:31:58;;;;;;;11.30;8.50;;;;;;;13.19;100.00;98450.98;107001;1281;22541;-92
2023/09/29 05:34:26;;;;;;;12.90;9.20;;;;;;;13.26;100.00;98453.15;108290;1281;22545;-88
2023/09/29 05:36:57;;;;;;;11.50;8.40;;;;;;;13.32;100.00;98453.14;107161;1281;25426;-90
2023/09/29 05:39:25;;;;;;;14.80;9.20;;;;;;;13.44;100.00;98452.86;107226;1281;22883;-89
2023/09/29 05:41:53;;;;;;;9.10;7.90;;;;;;;13.49;100.00;98456.90;107117;1281;22537;-90
2023/09/29 05:44:22;;;;;;;19.40;17.50;;;;;;;13.48;100.00;98457.41;107031;1281;24208;-92
2023/09/29 05:46:50;;;;;;;14.10;12.70;;;;;;;13.49;100.00;98459.96;107166;1281;25457;-90
2023/09/29 05:49:18;;;;;;;13.70;11.20;;;;;;;13.53;100.00;98460.25;107754;1281;22567;-92
2023/09/29 05:51:46;;;;;;;12.00;9.70;;;;;;;13.62;100.00;98457.41;107658;1281;22554;-92
2023/09/29 05:54:14;;;;;;;11.60;10.10;;;;;;;13.74;100.00;98460.35;107512;1281;24273;-90
2023/09/29 05:56:42;;;;;;;12.80;8.30;;;;;;;13.83;100.00;98459.31;107305;1281;22530;-92
2023/09/29 05:59:10;;;;;;;10.30;8.80;;;;;;;13.95;100.00;98458.30;107217;1281;24242;-90
2023/09/29 06:01:38;;;;;;;12.00;10.70;;;;;;;14.09;100.00;98458.17;106958;1278;22554;-90
2023/09/29 06:04:06;;;;;;;10.50;9.20;;;;;;;14.25;100.00;98461.64;106993;1275;22534;-91
2023/09/29 06:06:34;;;;;;;12.20;9.60;;;;;;;14.34;100.00;98466.98;106887;1281;25240;-90
2023/09/29 06:09:04;;;;;;;12.30;8.10;;;;;;;14.42;100.00;98470.96;106824;1281;23937;-91
2023/09/29 06:11:32;;;;;;;14.30;9.50;;;;;;;14.55;100.00;98469.53;106856;1281;23891;-89
2023/09/29 06:14:00;;;;;;;14.80;9.80;;;;;;;14.68;100.00;98467.37;106960;1281;24356;-89
2023/09/29 06:16:28;;;;;;;13.40;9.40;;;;;;;14.83;100.00;98468.66;106755;1281;24421;-91
2023/09/29 06:18:56;;;;;;;14.70;8.80;;;;;;;14.97;100.00;98468.20;108031;1281;22481;-90
2023/09/29 06:21:24;;;;;;;22.00;13.40;;;;;;;15.11;100.00;98471.09;107804;1281;24207;-90
2023/09/29 06:23:52;;;;;;;14.70;9.20;;;;;;;15.21;100.00;98469.21;106992;1281;25413;-87
2023/09/29 06:26:20;;;;;;;18.30;12.00;;;;;;;15.30;100.00;98470.10;106930;1281;23421;-87
2023/09/29 06:28:48;;;;;;;20.50;11.10;;;;;;;15.39;100.00;98470.98;107090;1281;22558;-89
2023/09/29 06:31:25;;;;;;;21.40;11.00;;;;;;;15.51;100.00;98476.02;107135;1281;22696;-91
2023/09/29 06:33:55;;;;;;;18.00;11.60;;;;;;;15.66;100.00;98476.96;106955;1283;22665;-90
2023/09/29 06:36:23;;;;;;;18.80;10.70;;;;;;;15.78;100.00;98476.47;107135;1280;25627;-90
2023/09/29 06:38:51;;;;;;;18.50;11.50;;;;;;;15.89;100.00;98478.20;108912;1283;22335;-87
2023/09/29 06:41:19;;;;;;;14.50;10.80;;;;;;;16.00;100.00;98481.00;109977;1283;22240;-85
2023/09/29 06:43:53;;;;;;;13.40;9.50;;;;;;;16.15;100.00;98480.73;109697;1283;22764;-85
2023/09/29 06:46:25;;;;;;;11.90;10.50;;;;;;;16.28;100.00;98480.55;109968;1283;22479;-87
2023/09/29 06:48:53;;;;;;;16.30;9.80;;;;;;;16.41;100.00;98483.31;108682;1283;23936;-89
2023/09/29 06:51:21;;;;;;;13.10;11.40;;;;;;;16.51;100.00;98485.12;107429;1283;22494;-89
2023/09/29 06:53:49;;;;;;;14.40;10.20;;;;;;;16.64;100.00;98485.03;107247;1283;22550;-90
2023/09/29 06:56:17;;;;;;;13.90;10.40;;;;;;;16.75;100.00;98483.48;106754;1283;22609;-90
2023/09/29 06:58:46;;;;;;;13.60;9.60;;;;;;;16.84;100.00;98488.63;106697;1283;22531;-90
2023/09/29 07:01:14;;;;;;;20.80;10.70;;;;;;;16.95;100.00;98489.45;106866;1279;23890;-88
2023/09/29 07:03:45;;;;;;;15.40;10.20;;;;;;;17.07;100.00;98491.90;108418;1283;22612;-90
2023/09/29 07:06:15;;;;;;;13.70;9.80;;;;;;;17.21;100.00;98490.45;107840;1283;25245;-92
2023/09/29 07:08:43;;;;;;;14.30;9.30;;;;;;;17.39;100.00;98487.43;106728;1281;25379;-83
2023/09/29 07:11:11;;;;;;;13.40;8.90;;;;;;;17.57;100.00;98486.41;106957;1275;22563;-87
2023/09/29 07:13:39;;;;;;;14.80;9.40;;;;;;;17.75;100.00;98490.22;106822;1275;22634;-85
2023/09/29 07:16:07;;;;;;;13.80;9.70;;;;;;;17.92;100.00;98492.42;107650;1275;22546;-84
2023/09/29 07:18:35;;;;;;;11.70;8.90;;;;;;;18.11;100.00;98490.95;107155;1283;24377;-84
2023/09/29 07:21:04;;;;;;;11.90;9.00;;;;;;;18.31;100.00;98492.94;106801;1283;25274;-84
2023/09/29 07:23:33;;;;;;;16.50;8.80;;;;;;;18.48;100.00;98491.73;106827;1276;22537;-85
2023/09/29 07:26:02;;;;;;;10.70;7.40;;;;;;;18.66;99.89;98489.70;106686;1283;22579;-85
2023/09/29 07:28:30;;;;;;;14.50;9.40;;;;;;;18.87;99.97;98498.33;106698;1276;22599;-86
2023/09/29 07:30:59;;;;;;;17.20;8.60;;;;;;;19.07;99.45;98500.55;106866;1283;22543;-84
2023/09/29 07:33:27;;;;;;;19.50;8.30;;;;;;;19.16;98.48;98498.34;106802;1273;25239;-85
2023/09/29 07:35:55;;;;;;;8.40;7.30;;;;;;;19.27;97.49;98501.10;106954;1283;24167;-85
2023/09/29 07:38:23;;;;;;;13.80;7.60;;;;;;;19.44;97.33;98499.67;106835;1276;22546;-84
2023/09/29 07:40:51;;;;;;;18.10;7.90;;;;;;;19.60;96.76;98501.46;106877;1280;22537;-85
2023/09/29 07:43:19;;;;;;;16.30;9.00;;;;;;;19.66;95.22;98505.35;106900;1283;22657;-84
2023/09/29 07:45:47;;;;;;;11.60;8.30;;;;;;;19.69;95.32;98503.86;107076;1283;22667;-85
2023/09/29 07:48:16;;;;;;;11.40;7.90;;;;;;;19.75;95.08;98508.59;106785;1283;25334;-84
2023/09/29 07:50:45;;;;;;;9.70;7.80;;;;;;;19.81;94.72;98508.35;106848;1276;22533;-83
2023/09/29 07:53:13;;;;;;;10.40;7.60;;;;;;;19.89;94.40;98506.75;106865;1275;24269;-85
2023/09/29 07:55:41;;;;;;;9.50;7.50;;;;;;;20.03;93.55;98508.70;106826;1279;22690;-83
2023/09/29 07:58:10;;;;;;;11.70;7.70;;;;;;;20.15;92.95;98508.59;106881;1283;24300;-83
2023/09/29 08:00:38;;;;;;;10.60;7.10;;;;;;;20.27;92.27;98505.86;106904;1275;22677;-84
2023/09/29 08:03:06;;;;;;;15.20;7.70;;;;;;;20.37;91.86;98508.97;106722;1278;22779;-85
2023/09/29 08:05:40;;;;;;;12.40;7.10;;;;;;;20.45;90.55;98501.20;106746;1283;24293;-85
2023/09/29 08:08:09;;;;;;;14.80;7.90;;;;;;;20.54;90.11;98502.56;106851;1283;25406;-85
2023/09/29 08:10:37;;;;;;;8.50;7.40;;;;;;;20.58;88.54;98502.39;106853;1280;23314;-84
2023/09/29 08:13:05;;;;;;;10.10;6.50;;;;;;;20.64;88.62;98507.63;106864;1280;23923;-85
2023/09/29 08:15:33;;;;;;;11.70;7.00;;;;;;;20.73;87.08;98507.93;106771;1283;25443;-85
2023/09/29 08:18:01;;;;;;;12.60;7.40;;;;;;;20.76;86.59;98507.55;106898;1276;22556;-84
2023/09/29 08:20:29;;;;;;;10.20;7.40;;;;;;;20.82;86.63;98509.82;106766;1281;22648;-85
2023/09/29 08:22:57;;;;;;;12.80;7.60;;;;;;;20.86;86.31;98503.52;106839;1280;22549;-83
2023/09/29 08:25:26;;;;;;;14.80;7.90;;;;;;;20.91;86.08;98508.08;107014;1283;25980;-82
2023/09/29 08:27:54;;;;;;;12.10;7.50;;;;;;;20.96;84.89;98510.02;107178;1278;24178;-82
2023/09/29 08:30:22;;;;;;;13.40;7.70;;;;;;;21.05;85.12;98511.91;106946;1262;22661;-83
2023/09/29 08:32:50;;;;;;;13.30;8.00;;;;;;;21.16;84.66;98509.18;106923;1283;23509;-83
2023/09/29 08:35:33;;;;;;;10.20;8.00;;;;;;;21.26;84.89;98509.73;106850;1279;22618;-82
2023/09/29 08:38:01;;;;;;;10.40;7.70;;;;;;;21.38;84.33;98512.48;107009;1275;24834;-89
2023/09/29 08:40:36;;;;;;;12.70;7.30;;;;;;;21.42;83.71;98512.41;106961;1279;22638;-82
2023/09/29 08:43:06;;;;;;;12.50;7.30;;;;;;;21.48;84.19;98508.65;106823;1263;22529;-82
2023/09/29 08:45:35;;;;;;;12.40;7.30;;;;;;;21.60;83.56;98509.95;106972;1275;22546;-82
2023/09/29 08:48:11;;;;;;;13.80;7.30;;;;;;;21.72;83.13;98512.81;106900;1279;22581;-81
2023/09/29 08:50:41;;;;;;;10.70;7.50;;;;;;;21.86;82.76;98511.15;107029;1283;22537;-81
2023/09/29 08:53:10;;;;;;;13.70;7.50;;;;;;;21.96;82.48;98508.87;107167;1276;22652;-81
2023/09/29 08:55:39;;;;;;;12.40;8.30;;;;;;;22.00;80.54;98505.50;106830;1264;22663;-82
2023/09/29 08:58:07;;;;;;;11.90;7.70;;;;;;;22.07;80.64;98509.17;106852;1283;22537;-81
2023/09/29 09:00:36;;;;;;;14.60;7.10;;;;;;;22.15;80.79;98507.16;106905;1275;25288;-81
2023/09/29 09:03:06;;;;;;;11.10;7.10;;;;;;;22.25;80.33;98504.08;106737;1283;22617;-82
2023/09/29 09:05:34;;;;;;;11.60;7.50;;;;;;;22.33;79.69;98502.21;106829;1283;22642;-82
2023/09/29 09:08:03;;;;;;;10.90;6.60;;;;;;;22.42;79.62;98509.28;106792;1278;25310;-82
2023/09/29 09:10:35;;;;;;;8.50;6.50;;;;;;;22.54;79.54;98509.29;106961;1281;22616;-83
2023/09/29 09:13:08;;;;;;;13.00;6.90;;;;;;;22.71;79.37;98508.33;106913;1270;24391;-80
2023/09/29 09:15:36;;;;;;;12.40;6.40;;;;;;;22.82;78.09;98513.49;106860;1278;22680;-80
2023/09/29 09:18:04;;;;;;;12.90;6.40;;;;;;;22.89;76.65;98513.38;106915;1276;24425;-80
2023/09/29 09:20:33;;;;;;;10.30;6.40;;;;;;;22.92;74.68;98516.88;106865;1279;25255;-84
2023/09/29 09:23:03;;;;;;;16.50;6.90;;;;;;;23.01;75.17;98513.00;106877;1282;25255;-82
2023/09/29 09:25:42;;;;;;;12.70;6.70;;;;;;;23.07;73.56;98515.38;106948;1282;22721;-81
2023/09/29 09:28:31;;;;;;;12.30;7.00;;;;;;;23.18;73.89;98512.41;106864;1282;22526;-82
2023/09/29 09:31:03;;;;;;;12.50;6.70;;;;;;;23.35;74.11;98514.34;106796;1275;22545;-81
2023/09/29 09:33:31;;;;;;;10.40;6.30;;;;;;;23.49;73.23;98511.58;106782;1282;24073;-81
2023/09/29 09:36:06;;;;;;;12.40;6.60;;;;;;;23.59;72.01;98512.98;106960;1279;22538;-80
2023/09/29 09:38:34;;;;;;;10.70;6.20;;;;;;;23.70;71.59;98515.76;106969;1282;24483;-80
2023/09/29 09:41:02;;;;;;;13.30;6.50;;;;;;;23.79;70.97;98517.16;107003;1275;24265;-80
2023/09/29 09:43:34;;;;;;;12.90;6.10;;;;;;;23.79;66.50;98511.17;106931;1280;24846;-81
2023/09/29 09:46:05;;;;;;;10.60;6.20;;;;;;;23.79;68.10;98513.38;106987;1282;22712;-80
2023/09/29 09:48:55;;;;;;;12.50;7.50;;;;;;;23.86;68.65;98512.86;106913;1276;24199;-81
2023/09/29 09:51:34;;;;;;;9.70;5.90;;;;;;;23.96;68.45;98512.92;106988;1282;22673;-79
2023/09/29 09:54:03;;;;;;;11.70;7.10;;;;;;;24.07;66.88;98508.80;106921;1282;22559;-80
2023/09/29 09:56:56;;;;;;;10.60;6.40;;;;;;;24.13;66.75;98510.30;106919;1282;25494;-80
2023/09/29 09:59:25;;;;;;;12.30;6.60;;;;;;;24.29;66.90;98508.05;106853;1275;22582;-80
2023/09/29 10:01:56;;;;;;;10.70;6.60;;;;;;;24.36;63.40;98505.92;106916;1279;25375;-80
2023/09/29 10:04:28;;;;;;;8.10;5.80;;;;;;;24.39;62.35;98508.73;107526;1276;25491;-81
2023/09/29 10:06:59;;;;;;;11.50;6.00;;;;;;;24.39;59.74;98508.51;106943;1272;22564;-79
2023/09/29 10:09:27;;;;;;;10.80;6.10;;;;;;;24.39;60.14;98504.48;106862;1281;22661;-80
2023/09/29 10:11:59;;;;;;;9.90;6.20;;;;;;;24.42;59.10;98498.86;107003;1276;22594;-81
2023/09/29 10:14:27;;;;;;;10.20;6.20;;;;;;;24.49;60.40;98498.02;107001;1276;22540;-81
2023/09/29 10:17:03;;;;;;;12.10;6.10;;;;;;;24.59;60.31;98500.48;106970;1272;22533;-81
2023/09/29 10:19:37;;;;;;;10.90;5.90;;;;;;;24.68;59.38;98501.38;106904;1275;22663;-80
2023/09/29 10:22:08;;;;;;;11.50;6.40;;;;;;;24.70;55.72;98501.15;106910;1282;24426;-80
2023/09/29 10:24:36;;;;;;;11.80;5.70;;;;;;;24.73;57.38;98497.16;109097;1275;22233;-81
2023/09/29 10:27:11;;;;;;;10.60;6.60;;;;;;;24.79;56.20;98494.38;108604;1282;22523;-80
2023/09/29 10:29:40;;;;;;;10.00;6.00;;;;;;;24.77;53.04;98495.31;109044;1276;25392;-80
2023/09/29 10:32:14;;;;;;;12.70;6.10;;;;;;;24.69;53.04;98495.39;107722;1279;23426;-80
2023/09/29 10:34:42;;;;;;;13.50;6.00;;;;;;;24.70;54.30;98494.39;107157;1276;22583;-81
2023/09/29 10:37:10;;;;;;;13.40;7.90;;;;;;;24.78;54.00;98491.70;106897;1282;22646;-81
2023/09/29 10:39:39;;;;;;;9.90;9.30;;;;;;;24.82;53.81;98491.74;106496;1282;24374;-81
2023/09/29 10:42:13;;;;;;;9.60;5.80;;;;;;;24.87;54.16;98483.84;106466;1276;24475;-82
2023/09/29 10:44:47;;;;;;;12.40;6.30;;;;;;;24.89;50.91;98481.09;106851;1282;25374;-83
2023/09/29 10:47:16;;;;;;;11.30;6.40;;;;;;;24.85;51.29;98480.18;106944;1281;25448;-84
2023/09/29 10:49:46;;;;;;;16.90;7.00;;;;;;;24.91;53.29;98477.96;106791;1282;22605;-80
2023/09/29 10:52:22;;;;;;;13.50;5.70;;;;;;;25.05;53.38;98471.23;106806;1276;22767;-80
2023/09/29 10:55:31;;;;;;;12.80;6.50;;;;;;;25.17;52.61;98464.27;106804;1282;24343;-84
2023/09/29 10:58:59;;;;;;;9.10;6.30;;;;;;;25.23;52.96;98457.93;109827;1285;22325;-83
2023/09/29 11:01:32;;;;;;;13.00;6.50;;;;;;;25.34;53.50;98454.93;109827;1279;22817;-84
2023/09/29 11:04:02;;;;;;;15.10;6.40;;;;;;;25.53;52.80;98452.92;109847;1279;22939;-83
2023/09/29 11:06:30;;;;;;;10.20;6.00;;;;;;;25.63;52.13;98457.02;109814;1267;22238;-82
2023/09/29 11:08:59;;;;;;;9.40;6.10;;;;;;;25.74;52.21;98455.25;109772;1265;22421;-80
2023/09/29 11:11:36;;;;;;;9.30;5.60;;;;;;;25.75;50.41;98454.40;109805;1281;23489;-79
2023/09/29 11:14:05;;;;;;;14.50;6.00;;;;;;;25.71;49.57;98447.52;109819;1278;22234;-78
2023/09/29 11:16:33;;;;;;;11.70;5.70;;;;;;;25.66;48.74;98438.50;109837;1279;22561;-79
2023/09/29 11:19:11;;;;;;;12.10;6.00;;;;;;;25.72;50.19;98438.30;109811;1286;22989;-79
2023/09/29 11:21:41;;;;;;;13.50;6.60;;;;;;;25.84;49.10;98437.67;109794;1280;22273;-80
2023/09/29 11:24:13;;;;;;;10.80;5.80;;;;;;;25.90;48.96;98437.77;109700;1286;22361;-79